createdAt,value
2022-09-05T00:02:04.348Z,1.60
2022-09-05T00:05:01.290Z,1.43
2022-09-05T00:07:59.499Z,1.57
2022-09-05T00:10:50.332Z,1.40
2022-09-05T00:13:34.475Z,2.03
2022-09-05T00:16:09.839Z,1.60
2022-09-05T00:24:21.445Z,1.40
2022-09-05T00:24:34.503Z,1.57
2022-09-05T00:28:39.642Z,1.60
2022-09-05T00:31:53.521Z,1.53
2022-09-05T00:34:47.901Z,1.73
2022-09-05T00:37:26.981Z,1.40
2022-09-05T00:40:05.582Z,1.43
2022-09-05T00:42:45.592Z,1.60
2022-09-05T00:45:25.173Z,1.70
2022-09-05T00:48:29.931Z,1.40
2022-09-05T00:51:07.935Z,1.50
2022-09-05T00:53:37.792Z,1.50
2022-09-05T00:56:38.278Z,1.30
2022-09-05T00:59:57.864Z,1.60
2022-09-05T01:02:31.613Z,1.17
2022-09-05T01:05:06.821Z,1.30
2022-09-05T01:07:49.527Z,1.73
2022-09-05T01:10:39.037Z,1.50
2022-09-05T01:13:19.991Z,1.60
2022-09-05T01:16:06.847Z,1.70
2022-09-05T01:18:47.175Z,1.80
2022-09-05T01:21:19.698Z,1.67
2022-09-05T01:24:03.012Z,1.40
2022-09-05T01:27:08.028Z,1.47
2022-09-05T01:29:54.106Z,1.53
2022-09-05T01:32:42.878Z,1.43
2022-09-05T01:35:27.946Z,2.17
2022-09-05T01:41:03.166Z,1.67
2022-09-05T01:43:52.061Z,1.43
2022-09-05T01:46:36.844Z,2.07
2022-09-05T01:49:16.101Z,1.57
2022-09-05T01:52:06.570Z,1.40
2022-09-05T01:55:04.558Z,1.50
2022-09-05T01:57:56.526Z,1.60
2022-09-05T02:00:29.318Z,1.60
2022-09-05T02:03:19.848Z,1.70
2022-09-05T02:06:24.061Z,1.50
2022-09-05T02:09:18.027Z,1.57
2022-09-05T02:11:58.282Z,1.57
2022-09-05T02:14:45.254Z,1.43
2022-09-05T02:17:51.168Z,1.47
2022-09-05T02:20:24.354Z,1.53
2022-09-05T02:23:32.597Z,1.33
2022-09-05T02:26:05.494Z,1.40
2022-09-05T02:28:50.422Z,1.60
2022-09-05T02:31:43.615Z,1.37
2022-09-05T02:34:17.422Z,1.30
2022-09-05T02:36:50.915Z,1.30
2022-09-05T02:44:27.122Z,1.70
2022-09-05T02:45:18.659Z,1.67
2022-09-05T02:45:27.765Z,1.37
2022-09-05T02:48:08.395Z,1.40
2022-09-05T02:55:03.377Z,1.60
2022-09-05T02:57:32.761Z,1.90
2022-09-05T02:57:38.161Z,1.50
2022-09-05T02:59:45.449Z,2.03
2022-09-05T03:02:27.451Z,1.60
2022-09-05T03:05:16.163Z,1.47
2022-09-05T03:07:42.872Z,1.57
2022-09-05T03:10:53.259Z,1.70
2022-09-05T03:13:48.963Z,1.63
2022-09-05T03:16:47.283Z,1.87
2022-09-05T03:19:52.197Z,1.63
2022-09-05T03:22:47.586Z,1.70
2022-09-05T03:25:41.443Z,1.50
2022-09-05T03:28:37.021Z,1.83
2022-09-05T03:31:22.464Z,1.70
2022-09-05T03:34:08.252Z,1.73
2022-09-05T03:36:59.231Z,1.37
2022-09-05T03:40:15.477Z,1.83
2022-09-05T03:43:09.025Z,2.13
2022-09-05T03:45:49.906Z,1.73
2022-09-05T03:48:31.630Z,1.87
2022-09-05T03:57:05.025Z,2.00
2022-09-05T03:57:23.303Z,1.60
2022-09-05T03:57:44.302Z,1.70
2022-09-05T04:00:27.953Z,1.70
2022-09-05T04:08:08.673Z,1.60
2022-09-05T04:08:20.497Z,1.60
2022-09-05T04:09:11.343Z,1.30
2022-09-05T04:11:50.399Z,1.43
2022-09-05T04:14:30.464Z,1.60
2022-09-05T04:17:09.331Z,1.60
2022-09-05T04:19:49.957Z,1.70
2022-09-05T04:22:25.004Z,1.50
2022-09-05T04:25:13.422Z,2.30
2022-09-05T04:27:51.086Z,1.40
2022-09-05T04:30:39.482Z,1.77
2022-09-05T04:33:36.270Z,1.50
2022-09-05T04:36:23.923Z,1.83
2022-09-05T04:39:19.694Z,2.07
2022-09-05T04:42:06.707Z,1.70
2022-09-05T04:44:55.890Z,1.70
2022-09-05T04:47:29.180Z,1.63
2022-09-05T04:50:01.328Z,1.50
2022-09-05T04:52:42.489Z,1.80
2022-09-05T04:55:16.848Z,1.90
2022-09-05T04:57:48.367Z,1.67
2022-09-05T05:06:00.409Z,1.90
2022-09-05T05:06:09.937Z,1.70
2022-09-05T05:06:44.062Z,1.70
2022-09-05T05:09:22.726Z,1.53
2022-09-05T05:18:00.362Z,2.17
2022-09-05T05:18:06.880Z,1.70
2022-09-05T05:18:39.311Z,2.43
2022-09-05T05:21:10.913Z,2.10
2022-09-05T05:23:41.353Z,1.90
2022-09-05T05:26:13.375Z,1.60
2022-09-05T05:28:59.967Z,1.80
2022-09-05T05:31:30.311Z,2.10
2022-09-05T05:34:02.205Z,2.00
2022-09-05T05:36:36.309Z,1.70
2022-09-05T05:39:10.707Z,2.10
2022-09-05T05:41:42.673Z,2.00
2022-09-05T05:44:26.184Z,2.27
2022-09-05T05:46:59.212Z,1.80
2022-09-05T05:49:28.560Z,1.73
2022-09-05T05:52:19.207Z,1.70
2022-09-05T05:55:14.079Z,1.87
2022-09-05T05:58:25.942Z,2.10
2022-09-05T06:01:37.777Z,1.77
2022-09-05T06:04:41.413Z,1.90
2022-09-05T06:09:32.392Z,2.03
2022-09-05T06:14:49.338Z,2.73
2022-09-05T06:14:55.647Z,2.27
2022-09-05T06:17:28.052Z,2.07
2022-09-05T06:22:09.505Z,2.77
2022-09-05T06:24:02.828Z,2.30
2022-09-05T06:27:01.288Z,2.50
2022-09-05T06:29:47.246Z,2.50
2022-09-05T06:32:33.513Z,2.17
2022-09-05T06:35:18.711Z,2.20
2022-09-05T06:38:21.180Z,2.40
2022-09-05T06:41:03.850Z,2.20
2022-09-05T06:44:09.043Z,1.90
2022-09-05T06:46:54.704Z,2.23
2022-09-05T06:49:29.735Z,1.97
2022-09-05T06:52:29.594Z,2.20
2022-09-05T06:55:24.399Z,2.07
2022-09-05T06:58:09.595Z,1.73
2022-09-05T07:00:51.586Z,1.97
2022-09-05T07:03:30.612Z,2.23
2022-09-05T07:07:00.990Z,1.60
2022-09-05T07:09:50.784Z,1.87
2022-09-05T07:12:23.227Z,1.70
2022-09-05T07:15:08.831Z,1.80
2022-09-05T07:18:09.167Z,1.80
2022-09-05T07:21:12.125Z,2.07
2022-09-05T07:24:06.702Z,1.90
2022-09-05T07:26:51.714Z,1.83
2022-09-05T07:29:27.648Z,1.70
2022-09-05T07:31:56.091Z,2.00
2022-09-05T07:34:30.827Z,1.90
2022-09-05T07:37:14.812Z,1.70
2022-09-05T07:39:55.323Z,1.73
2022-09-05T07:42:30.343Z,1.80
2022-09-05T07:45:01.184Z,1.70
2022-09-05T07:47:34.485Z,1.60
2022-09-05T07:50:32.462Z,1.63
2022-09-05T07:57:01.328Z,1.60
2022-09-05T07:57:06.511Z,1.73
2022-09-05T07:58:52.545Z,1.50
2022-09-05T08:01:22.647Z,1.60
2022-09-05T08:03:55.571Z,1.63
2022-09-05T08:06:28.946Z,1.60
2022-09-05T08:10:06.857Z,1.90
2022-09-05T08:12:27.749Z,1.50
2022-09-05T08:15:14.104Z,1.50
2022-09-05T08:18:06.995Z,1.73
2022-09-05T08:20:50.122Z,1.60
2022-09-05T08:23:42.990Z,1.80
2022-09-05T08:26:15.980Z,1.40
2022-09-05T08:29:09.206Z,1.60
2022-09-05T08:31:35.669Z,1.63
2022-09-05T08:34:15.616Z,1.40
2022-09-05T08:36:48.418Z,2.00
2022-09-05T08:39:25.590Z,1.80
2022-09-05T08:42:13.261Z,1.97
2022-09-05T08:46:42.290Z,1.40
2022-09-05T08:47:55.670Z,1.70
2022-09-05T08:50:38.512Z,1.67
2022-09-05T08:53:46.219Z,1.70
2022-09-05T08:56:24.007Z,1.50
2022-09-05T08:59:28.500Z,1.50
2022-09-05T09:02:47.284Z,1.47
2022-09-05T09:06:13.285Z,1.60
2022-09-05T09:09:06.771Z,1.40
2022-09-05T09:11:44.107Z,1.23
2022-09-05T09:14:35.795Z,1.30
2022-09-05T09:17:03.208Z,1.80
2022-09-05T09:19:32.627Z,1.57
2022-09-05T09:22:14.134Z,1.73
2022-09-05T09:24:47.335Z,1.20
2022-09-05T09:28:47.701Z,2.33
2022-09-05T09:31:04.605Z,1.23
2022-09-05T09:33:46.894Z,1.47
2022-09-05T09:36:26.383Z,1.37
2022-09-05T09:39:37.791Z,1.37
2022-09-05T09:42:32.662Z,1.30
2022-09-05T09:45:28.291Z,1.80
2022-09-05T09:48:12.153Z,1.80
2022-09-05T09:50:58.334Z,1.77
2022-09-05T09:53:44.426Z,1.47
2022-09-05T09:56:19.889Z,1.33
2022-09-05T09:59:04.736Z,1.60
2022-09-05T10:01:53.268Z,1.40
2022-09-05T10:10:36.188Z,1.60
2022-09-05T10:10:44.735Z,1.10
2022-09-05T10:10:53.559Z,1.40
2022-09-05T10:13:35.851Z,1.40
2022-09-05T10:16:34.822Z,1.47
2022-09-05T10:22:37.321Z,1.63
2022-09-05T10:25:25.614Z,1.40
2022-09-05T10:28:16.936Z,1.23
2022-09-05T10:33:33.865Z,1.60
2022-09-05T10:35:11.370Z,1.50
2022-09-05T10:36:34.592Z,1.37
2022-09-05T10:39:14.960Z,1.27
2022-09-05T10:41:51.004Z,1.50
2022-09-05T10:44:31.511Z,1.10
2022-09-05T10:47:01.070Z,1.57
2022-09-05T10:49:30.720Z,1.57
2022-09-05T10:52:23.936Z,1.37
2022-09-05T10:55:14.304Z,1.10
2022-09-05T10:57:56.889Z,1.40
2022-09-05T11:02:22.513Z,1.30
2022-09-05T11:03:56.094Z,1.33
2022-09-05T11:06:50.242Z,1.13
2022-09-05T11:09:47.576Z,1.20
2022-09-05T11:12:32.157Z,1.00
2022-09-05T11:15:09.391Z,1.40
2022-09-05T11:17:51.824Z,1.13
2022-09-05T11:20:35.770Z,1.00
2022-09-05T11:23:15.182Z,1.23
2022-09-05T11:25:43.043Z,1.57
2022-09-05T11:28:22.330Z,1.27
2022-09-05T11:30:53.243Z,1.30
2022-09-05T11:39:56.951Z,1.40
2022-09-05T11:39:57.798Z,1.30
2022-09-05T11:40:28.448Z,1.30
2022-09-05T11:43:22.469Z,1.23
2022-09-05T11:46:03.533Z,1.33
2022-09-05T11:48:59.997Z,1.20
2022-09-05T11:52:04.180Z,1.10
2022-09-05T11:54:51.994Z,1.20
2022-09-05T11:57:33.818Z,1.47
2022-09-05T12:00:31.724Z,1.50
2022-09-05T12:03:11.691Z,0.93
2022-09-05T12:06:33.853Z,1.00
2022-09-05T12:09:24.552Z,1.10
2022-09-05T12:11:56.999Z,1.27
2022-09-05T12:15:07.295Z,1.57
2022-09-05T12:17:56.031Z,1.00
2022-09-05T12:20:43.189Z,1.40
2022-09-05T12:24:11.621Z,1.17
2022-09-05T12:27:35.651Z,1.17
2022-09-05T12:29:34.040Z,1.20
2022-09-05T12:33:58.367Z,1.10
2022-09-05T12:36:03.852Z,1.07
2022-09-05T12:40:51.979Z,1.27
2022-09-05T12:41:44.327Z,1.50
2022-09-05T12:44:41.531Z,1.40
2022-09-05T12:47:16.871Z,1.20
2022-09-05T12:50:14.818Z,1.07
2022-09-05T12:52:49.502Z,1.30
2022-09-05T12:55:36.422Z,1.10
2022-09-05T13:02:58.936Z,1.60
2022-09-05T13:03:11.562Z,1.10
2022-09-05T13:04:32.046Z,1.40
2022-09-05T13:07:07.371Z,1.83
2022-09-05T13:10:00.641Z,1.37
2022-09-05T13:14:54.225Z,1.43
2022-09-05T13:15:38.985Z,1.33
2022-09-05T13:18:15.144Z,1.33
2022-09-05T13:21:02.233Z,1.07
2022-09-05T13:23:35.373Z,1.50
2022-09-05T13:26:07.994Z,1.30
2022-09-05T13:28:48.792Z,1.50
2022-09-05T13:37:59.656Z,1.00
2022-09-05T13:38:14.909Z,1.67
2022-09-05T13:38:15.622Z,1.50
2022-09-05T13:40:20.455Z,1.60
2022-09-05T13:43:07.176Z,1.30
2022-09-05T13:45:41.125Z,1.17
2022-09-05T13:51:43.133Z,1.20
2022-09-05T13:54:33.971Z,1.00
2022-09-05T13:57:31.942Z,1.47
2022-09-05T14:00:26.958Z,1.50
2022-09-05T14:03:30.810Z,1.30
2022-09-05T14:06:24.879Z,1.40
2022-09-05T14:09:37.138Z,1.37
2022-09-05T14:12:19.461Z,1.03
2022-09-05T14:15:25.826Z,1.30
2022-09-05T14:17:52.768Z,1.33
2022-09-05T14:20:42.956Z,1.27
2022-09-05T14:23:14.473Z,1.30
2022-09-05T14:25:47.446Z,1.37
2022-09-05T14:28:22.295Z,1.47
2022-09-05T14:34:05.754Z,1.40
2022-09-05T14:37:39.710Z,1.50
2022-09-05T14:37:40.627Z,1.20
2022-09-05T14:39:58.462Z,1.40
2022-09-05T14:42:56.114Z,1.30
2022-09-05T14:46:00.357Z,1.20
2022-09-05T14:48:52.978Z,1.40
2022-09-05T14:51:34.998Z,1.50
2022-09-05T15:02:43.730Z,1.30
2022-09-05T15:02:45.135Z,1.30
2022-09-05T15:03:01.911Z,1.43
2022-09-05T15:05:30.786Z,1.30
2022-09-05T15:08:07.002Z,1.50
2022-09-05T15:12:21.742Z,1.40
2022-09-05T15:14:04.529Z,1.20
2022-09-05T15:16:38.369Z,1.40
2022-09-05T15:19:04.950Z,1.30
2022-09-05T15:21:38.108Z,1.40
2022-09-05T15:24:21.169Z,1.20
2022-09-05T15:26:59.945Z,1.20
2022-09-05T15:29:31.341Z,1.30
2022-09-05T15:32:31.009Z,1.60
2022-09-05T15:35:00.217Z,1.30
2022-09-05T15:37:36.592Z,1.30
2022-09-05T15:40:22.483Z,1.50
2022-09-05T15:43:16.958Z,1.40
2022-09-05T15:45:49.161Z,1.47
2022-09-05T15:48:24.176Z,1.50
2022-09-05T15:50:56.236Z,1.60
2022-09-05T15:53:37.219Z,1.33
2022-09-05T15:56:09.496Z,1.43
2022-09-05T15:58:53.950Z,1.00
2022-09-05T16:01:43.415Z,1.30
2022-09-05T16:08:18.324Z,1.47
2022-09-05T16:10:35.756Z,1.67
2022-09-05T16:10:45.240Z,1.20
2022-09-05T16:12:47.125Z,1.30
2022-09-05T16:17:12.547Z,1.27
2022-09-05T16:23:15.224Z,1.43
2022-09-05T16:23:34.514Z,1.40
2022-09-05T16:24:04.862Z,1.10
2022-09-05T16:26:39.368Z,1.63
2022-09-05T16:29:27.052Z,1.67
2022-09-05T16:32:02.003Z,1.37
2022-09-05T16:34:54.237Z,1.47
2022-09-05T16:37:32.626Z,1.43
2022-09-05T16:40:14.979Z,1.23
2022-09-05T16:42:55.247Z,1.13
2022-09-05T16:45:31.076Z,1.23
2022-09-05T16:48:28.731Z,1.67
2022-09-05T16:51:35.890Z,1.20
2022-09-05T16:54:11.047Z,1.20
2022-09-05T16:56:53.730Z,1.40
2022-09-05T16:59:23.515Z,1.60
2022-09-05T17:02:12.588Z,1.33
2022-09-05T17:05:04.427Z,1.43
2022-09-05T17:08:02.754Z,1.60
2022-09-05T17:10:42.798Z,1.43
2022-09-05T17:13:16.733Z,1.53
2022-09-05T17:15:51.936Z,1.60
2022-09-05T17:18:25.964Z,1.20
2022-09-05T17:20:58.884Z,1.50
2022-09-05T17:28:46.064Z,1.30
2022-09-05T17:29:27.752Z,1.70
2022-09-05T17:32:50.479Z,1.50
2022-09-05T17:35:55.085Z,1.47
2022-09-05T17:38:42.963Z,1.40
2022-09-05T17:41:41.926Z,1.53
2022-09-05T17:44:21.717Z,1.50
2022-09-05T17:47:16.487Z,1.50
2022-09-05T17:49:47.397Z,1.33
2022-09-05T17:52:16.368Z,1.50
2022-09-05T17:54:49.662Z,1.33
2022-09-05T17:57:29.218Z,1.90
2022-09-05T18:00:04.096Z,4.73
2022-09-05T18:02:56.400Z,3.37
2022-09-05T18:05:53.900Z,3.00
2022-09-05T18:08:49.767Z,2.37
2022-09-05T18:11:25.804Z,2.57
2022-09-05T18:16:48.352Z,3.20
2022-09-05T18:19:46.244Z,2.90
2022-09-05T18:22:41.101Z,2.40
2022-09-05T18:25:28.808Z,2.33
2022-09-05T18:28:34.388Z,1.90
2022-09-05T18:31:41.421Z,2.00
2022-09-05T18:34:14.811Z,1.97
2022-09-05T18:36:42.936Z,2.37
2022-09-05T18:39:27.874Z,2.50
2022-09-05T18:42:25.616Z,2.60
2022-09-05T18:44:59.533Z,2.37
2022-09-05T18:47:33.565Z,2.60
2022-09-05T18:50:25.789Z,2.63
2022-09-05T18:52:51.765Z,2.40
2022-09-05T18:56:11.205Z,2.20
2022-09-05T18:58:30.262Z,2.17
2022-09-05T19:01:23.594Z,2.17
2022-09-05T19:03:59.696Z,1.90
2022-09-05T19:06:35.660Z,2.23
2022-09-05T19:09:10.736Z,2.50
2022-09-05T19:11:53.987Z,2.40
2022-09-05T19:14:38.451Z,2.30
2022-09-05T19:17:12.124Z,2.47
2022-09-05T19:20:31.766Z,2.50
2022-09-05T19:23:13.104Z,2.73
2022-09-05T19:25:52.842Z,2.33
2022-09-05T19:36:49.747Z,2.70
2022-09-05T19:37:06.087Z,2.37
2022-09-05T19:37:14.646Z,2.80
2022-09-05T19:37:29.661Z,2.90
2022-09-05T19:47:25.818Z,2.80
2022-09-05T19:47:40.425Z,2.57
2022-09-05T19:47:48.752Z,2.07
2022-09-05T19:48:30.573Z,2.67
2022-09-05T19:51:17.397Z,2.13
2022-09-05T19:54:05.502Z,2.30
2022-09-05T19:56:44.819Z,2.20
2022-09-05T19:59:15.895Z,1.90
2022-09-05T20:01:44.325Z,2.13
2022-09-05T20:04:16.328Z,2.87
2022-09-05T20:06:42.809Z,2.83
2022-09-05T20:09:16.051Z,3.03
2022-09-05T20:11:54.712Z,2.33
2022-09-05T20:14:30.630Z,2.47
2022-09-05T20:17:01.427Z,2.43
2022-09-05T20:19:34.167Z,2.50
2022-09-05T20:22:46.781Z,2.27
2022-09-05T20:24:54.793Z,2.10
2022-09-05T20:27:27.232Z,2.30
2022-09-05T20:30:01.219Z,2.37
2022-09-05T20:32:40.461Z,2.47
2022-09-05T20:39:26.592Z,2.00
2022-09-05T20:43:31.289Z,2.47
2022-09-05T20:43:32.826Z,2.27
2022-09-05T20:44:22.584Z,2.27
2022-09-05T20:48:43.527Z,2.37
2022-09-05T20:54:12.675Z,2.27
2022-09-05T20:54:17.182Z,1.80
2022-09-05T20:56:16.585Z,2.30
2022-09-05T20:58:48.251Z,2.47
2022-09-05T21:01:22.745Z,2.20
2022-09-05T21:03:56.852Z,2.20
2022-09-05T21:06:37.542Z,2.40
2022-09-05T21:09:25.247Z,2.40
2022-09-05T21:11:55.408Z,2.50
2022-09-05T21:14:24.197Z,2.43
2022-09-05T21:17:13.453Z,2.20
2022-09-05T21:19:46.652Z,2.20
2022-09-05T21:22:24.973Z,2.30
2022-09-05T21:25:13.093Z,2.40
2022-09-05T21:27:39.635Z,2.30
2022-09-05T21:30:30.823Z,2.43
2022-09-05T21:33:06.354Z,2.77
2022-09-05T21:35:42.871Z,2.40
2022-09-05T21:38:12.500Z,2.03
2022-09-05T21:40:52.078Z,2.17
2022-09-05T21:47:38.478Z,2.40
2022-09-05T21:47:44.679Z,2.27
2022-09-05T21:48:56.762Z,2.20
2022-09-05T21:51:26.094Z,2.13
2022-09-05T21:59:16.215Z,1.80
2022-09-05T21:59:18.876Z,1.90
2022-09-05T21:59:49.730Z,1.97
2022-09-05T22:02:17.645Z,1.90
2022-09-05T22:04:44.447Z,2.10
2022-09-05T22:07:32.335Z,1.90
2022-09-05T22:10:00.924Z,1.80
2022-09-05T22:12:33.430Z,2.20
2022-09-05T22:15:05.963Z,2.40
2022-09-05T22:17:48.836Z,1.93
2022-09-05T22:20:20.700Z,2.00
2022-09-05T22:22:56.240Z,2.10
2022-09-05T22:25:28.474Z,2.10
2022-09-05T22:28:06.125Z,2.40
2022-09-05T22:30:35.396Z,2.63
2022-09-05T22:33:05.351Z,2.37
2022-09-05T22:35:36.994Z,2.30
2022-09-05T22:38:10.926Z,2.27
2022-09-05T22:40:39.385Z,2.07
2022-09-05T22:43:08.998Z,1.90
2022-09-05T22:45:37.139Z,2.00
2022-09-05T22:48:09.543Z,2.87
2022-09-05T22:50:36.983Z,2.10
2022-09-05T22:53:06.870Z,1.93
2022-09-05T22:55:34.978Z,2.30
2022-09-05T22:58:02.553Z,2.10
2022-09-05T23:00:29.350Z,1.70
2022-09-05T23:03:00.267Z,2.23
2022-09-05T23:05:27.665Z,2.17
2022-09-05T23:07:58.309Z,2.20
2022-09-05T23:10:25.461Z,2.00
2022-09-05T23:12:52.081Z,2.10
2022-09-05T23:15:18.782Z,2.00
2022-09-05T23:17:52.646Z,2.00
2022-09-05T23:20:19.080Z,2.00
2022-09-05T23:22:45.550Z,2.10
2022-09-05T23:25:11.993Z,2.27
2022-09-05T23:27:38.877Z,2.20
2022-09-05T23:30:07.186Z,2.00
2022-09-05T23:32:34.252Z,2.10
2022-09-05T23:35:00.842Z,2.17
2022-09-05T23:37:27.563Z,1.77
2022-09-05T23:39:54.109Z,1.90
2022-09-05T23:42:20.583Z,2.10
2022-09-05T23:44:46.960Z,2.03
2022-09-05T23:47:13.403Z,1.90
2022-09-05T23:49:39.811Z,2.40
2022-09-05T23:52:06.223Z,2.10
2022-09-05T23:54:32.799Z,2.20
2022-09-05T23:56:59.237Z,2.00
2022-09-05T23:59:25.752Z,2.23
